Terminal Aerodrome Forecast
Issued by NWS

Home | Current Version | Previous Version | Text Only | Print | Product List | Glossary On
Versions: 1 2 3 4 5 6 7 8 9 10 11 12 13 14 15 16 17 18 19 20 21
000
FTUS46 KMTR 312338
TAFMRY
TAF
KMRY 312338Z 0100/0124 22008KT P6SM SCT012
      TEMPO 0100/0103 BKN012
     FM010300 23005KT P6SM OVC007
     FM010600 18003KT 3SM BR OVC003
     FM011600 25003KT 6SM BR OVC007
     FM011900 29008KT P6SM OVC015
     FM012100 27010KT P6SM FEW015 SCT250=

USA.gov is the U.S. government's official web portal to all federal, state and local government web resources and services.